Hampton, VA (23665)

5:16 AM EST on November 23, 2014 (GMT -0500)
Nelson Farms | Change Station
CLOSE
Current Station
Personal Weather Station
Location: Hampton, VA
Elevation: 23 ft
Nearby Weather Stations

Elev 23 ft 37.07 °N, 76.42 °W | Updated 2 seconds ago

Clear
Clear
32.7 °F
Feels Like 33 °F
N
0.0
Wind Variable Wind from NNW
Gusts 0.0 mph

Today
High -- | Low -- °F
--% Chance of Precip.
Yesterday
High -- | Low -- °F
Precip. -- in
6:52 AM 4:51 PM
New Moon, 1% visible
Pressure 30.32 in
Visibility 10.0 miles
Clouds Clear
Windchill 33 °F
Dew Point 31 °F
Humidity 93%
Rainfall 0.00 in
Snow Depth Not available.
UV 0 out of 12
Pollen .10 out of 12
Air Quality Not available.
Flu Activity Not available.
METAR KLFI 230958Z AUTO 21003KT 10SM CLR 02/00 A3030 RMK AO2 SLP268 T00150003 $

More Conditions Fewer Conditions

Pressure 30.32 in
Visibility 10.0 miles
Clouds Clear
Windchill 33 °F
Dew Point 31 °F
Humidity 93%
Rainfall 0.00 in
Snow Depth Not available.
UV 0 out of 12
Pollen .10 out of 12
Air Quality Not available.
Flu Activity Not available.
METAR KLFI 230958Z AUTO 21003KT 10SM CLR 02/00 A3030 RMK AO2 SLP268 T00150003 $

More Conditions Fewer Conditions

10-Day Weather Forecast

Almanac

Astronomy

Nov. 23, 2014 Rise Set
Actual Time
Civil Twilight
Nautical Twilight
Astronomical Twilight
Moon
Length of Visible Light
Length of Day
Tomorrow will be .
, % of the Moon is Illuminated

Today's Extremes

State Highs State Lows

Community

WunderPhotos

Upload Photos

1,773,031 photos uploaded!

WunderBlogs® & News

Nearby

Air Quality

  Air Quality AQ Index Pollutant
Not available.

Snow Depth

Station Depth Elevation

Earthquake Activity

City Distance Mag. Time & Date
Minimum magnitude displayed is 2.5.

Coastal Water Temperatures

Place Temperature

Nearby Weather Stations